createdAt,value
2022-08-30T00:01:14.244Z,100166.97
2022-08-30T00:03:45.892Z,100203.25
2022-08-30T00:06:14.763Z,100151.59
2022-08-30T00:08:43.059Z,100193.81
2022-08-30T00:11:13.003Z,100197.41
2022-08-30T00:13:41.243Z,100170.94
2022-08-30T00:16:09.210Z,100172.91
2022-08-30T00:18:38.657Z,100197.50
2022-08-30T00:21:06.677Z,100197.66
2022-08-30T00:23:34.944Z,100192.53
2022-08-30T00:26:02.948Z,100199.78
2022-08-30T00:28:32.004Z,100193.69
2022-08-30T00:31:00.228Z,100195.63
2022-08-30T00:33:28.267Z,100189.56
2022-08-30T00:35:57.464Z,100196.75
2022-08-30T00:38:25.604Z,100200.34
2022-08-30T00:40:53.600Z,100201.34
2022-08-30T00:43:24.288Z,100198.00
2022-08-30T00:45:55.763Z,100200.63
2022-08-30T00:48:24.103Z,100197.97
2022-08-30T00:50:53.887Z,100198.84
2022-08-30T00:53:25.483Z,100203.22
2022-08-30T00:55:53.298Z,100194.56
2022-08-30T00:58:23.847Z,100180.88
2022-08-30T01:00:52.033Z,100198.00
2022-08-30T01:03:20.035Z,100199.63
2022-08-30T01:05:47.861Z,100160.94
2022-08-30T01:08:16.380Z,100209.19
2022-08-30T01:10:45.669Z,100187.88
2022-08-30T01:13:14.129Z,100179.34
2022-08-30T01:15:41.945Z,100193.84
2022-08-30T01:18:10.265Z,100214.72
2022-08-30T01:20:44.701Z,100209.59
2022-08-30T01:23:15.070Z,100212.56
2022-08-30T01:25:43.710Z,100201.19
2022-08-30T01:28:12.552Z,100202.03
2022-08-30T01:30:40.534Z,100182.16
2022-08-30T01:33:08.953Z,100195.31
2022-08-30T01:35:47.363Z,100200.28
2022-08-30T01:38:17.903Z,100177.25
2022-08-30T01:40:45.889Z,100211.69
2022-08-30T01:43:14.047Z,100199.44
2022-08-30T01:45:42.164Z,100215.13
2022-08-30T01:48:12.794Z,100212.56
2022-08-30T01:50:42.235Z,100211.72
2022-08-30T01:53:12.312Z,100211.88
2022-08-30T01:55:42.841Z,100206.75
2022-08-30T01:58:10.830Z,100211.22
2022-08-30T02:00:39.237Z,100213.81
2022-08-30T02:03:07.105Z,100224.59
2022-08-30T02:05:35.169Z,100213.81
2022-08-30T02:08:03.594Z,100220.84
2022-08-30T02:10:31.694Z,100224.44
2022-08-30T02:13:00.906Z,100223.50
2022-08-30T02:15:28.923Z,100212.06
2022-08-30T02:17:56.772Z,100207.75
2022-08-30T02:20:24.761Z,100198.19
2022-08-30T02:22:52.630Z,100211.34
2022-08-30T02:25:21.323Z,100208.78
2022-08-30T02:27:49.250Z,100211.50
2022-08-30T02:30:18.512Z,100215.94
2022-08-30T02:32:46.557Z,100217.66
2022-08-30T02:35:14.376Z,100187.47
2022-08-30T02:37:49.543Z,100210.69
2022-08-30T02:40:18.374Z,100209.75
2022-08-30T02:42:46.390Z,100207.16
2022-08-30T02:45:15.260Z,100210.81
2022-08-30T02:47:47.198Z,100200.16
2022-08-30T02:50:15.345Z,100201.78
2022-08-30T02:52:43.348Z,100199.97
2022-08-30T02:55:16.058Z,100204.34
2022-08-30T02:57:44.541Z,100198.19
2022-08-30T03:00:15.666Z,100198.97
2022-08-30T03:02:43.491Z,100207.84
2022-08-30T03:05:13.294Z,100201.69
2022-08-30T03:07:41.218Z,100193.72
2022-08-30T03:10:09.602Z,100196.50
2022-08-30T03:12:38.007Z,100199.31
2022-08-30T03:15:06.601Z,100192.31
2022-08-30T03:17:34.450Z,100189.72
2022-08-30T03:20:02.471Z,100187.94
2022-08-30T03:22:31.834Z,100192.31
2022-08-30T03:25:01.405Z,100189.63
2022-08-30T03:27:29.754Z,100197.59
2022-08-30T03:32:25.390Z,100190.53
2022-08-30T03:34:53.216Z,100193.22
2022-08-30T03:37:25.570Z,100189.66
2022-08-30T03:39:56.690Z,100191.66
2022-08-30T03:42:24.832Z,100190.00
2022-08-30T03:44:53.012Z,100190.94
2022-08-30T03:47:20.962Z,100158.97
2022-08-30T03:49:48.948Z,100196.53
2022-08-30T03:52:16.881Z,100192.22
2022-08-30T03:54:46.570Z,100192.44
2022-08-30T03:57:19.959Z,100195.19
2022-08-30T03:59:48.342Z,100199.78
2022-08-30T04:02:16.311Z,100198.06
2022-08-30T04:04:44.233Z,100189.31
2022-08-30T04:07:12.192Z,100191.34
2022-08-30T04:09:40.038Z,100196.84
2022-08-30T04:12:08.211Z,100193.75
2022-08-30T04:14:37.591Z,100187.81
2022-08-30T04:17:05.735Z,100202.66
2022-08-30T04:19:33.630Z,100194.94
2022-08-30T04:22:01.959Z,100200.25
2022-08-30T04:24:30.919Z,100197.63
2022-08-30T04:26:58.767Z,100209.19
2022-08-30T04:29:26.582Z,100199.63
2022-08-30T04:31:55.833Z,100207.53
2022-08-30T04:34:23.803Z,100204.94
2022-08-30T04:36:51.657Z,100209.53
2022-08-30T04:39:26.424Z,100200.84
2022-08-30T04:41:54.283Z,100196.66
2022-08-30T04:44:28.206Z,100207.34
2022-08-30T04:46:57.471Z,100195.97
2022-08-30T04:49:25.426Z,100199.72
2022-08-30T04:51:53.420Z,100196.31
2022-08-30T04:54:21.460Z,100202.59
2022-08-30T04:56:49.336Z,100164.75
2022-08-30T04:59:20.453Z,100209.03
2022-08-30T05:01:48.679Z,100211.84
2022-08-30T05:04:18.136Z,100216.22
2022-08-30T05:06:46.178Z,100225.13
2022-08-30T05:09:29.644Z,100222.34
2022-08-30T05:11:57.510Z,100221.59
2022-08-30T05:14:26.625Z,100228.72
2022-08-30T05:16:54.476Z,100236.50
2022-08-30T05:19:35.997Z,100240.63
2022-08-30T05:22:05.216Z,100244.03
2022-08-30T05:24:33.126Z,100246.50
2022-08-30T05:27:01.144Z,100249.97
2022-08-30T05:29:29.316Z,100243.53
2022-08-30T05:31:57.114Z,100246.94
2022-08-30T05:34:25.216Z,100245.19
2022-08-30T05:36:54.455Z,100244.41
2022-08-30T05:39:22.476Z,100252.22
2022-08-30T05:41:51.022Z,100250.22
2022-08-30T05:44:22.939Z,100244.13
2022-08-30T05:46:53.207Z,100237.88
2022-08-30T05:49:21.171Z,100246.63
2022-08-30T05:51:49.044Z,100243.19
2022-08-30T05:54:18.355Z,100257.03
2022-08-30T05:56:46.700Z,100197.63
2022-08-30T05:59:15.558Z,100259.00
2022-08-30T06:01:44.332Z,100241.47
2022-08-30T06:04:13.111Z,100242.81
2022-08-30T06:06:41.895Z,100222.72
2022-08-30T06:09:10.559Z,100248.38
2022-08-30T06:11:39.848Z,100248.78
2022-08-30T06:14:07.785Z,100248.25
2022-08-30T06:16:39.704Z,100257.91
2022-08-30T06:19:08.427Z,100253.03
2022-08-30T06:21:37.035Z,100256.38
2022-08-30T06:24:05.571Z,100222.38
2022-08-30T06:26:33.542Z,100210.72
2022-08-30T06:29:02.786Z,100232.94
2022-08-30T06:31:30.898Z,100271.09
2022-08-30T06:33:58.811Z,100243.44
2022-08-30T06:36:26.951Z,100263.69
2022-08-30T06:38:56.597Z,100244.94
2022-08-30T06:41:25.337Z,100212.69
2022-08-30T06:43:53.368Z,100255.63
2022-08-30T06:46:24.838Z,100252.63
2022-08-30T06:48:52.799Z,100253.00
2022-08-30T06:51:24.388Z,100251.56
2022-08-30T06:53:55.443Z,100248.66
2022-08-30T06:56:25.206Z,100243.63
2022-08-30T06:58:56.470Z,100223.56
2022-08-30T07:01:27.075Z,100226.22
2022-08-30T07:03:55.519Z,100204.44
2022-08-30T07:06:23.486Z,100240.41
2022-08-30T07:08:56.179Z,100239.47
2022-08-30T07:11:32.152Z,100236.53
2022-08-30T07:14:00.272Z,100234.69
2022-08-30T07:16:29.750Z,100240.88
2022-08-30T07:18:58.669Z,100228.88
2022-08-30T07:21:28.758Z,100248.09
2022-08-30T07:23:57.162Z,100237.16
2022-08-30T07:26:26.390Z,100237.78
2022-08-30T07:28:56.223Z,100241.41
2022-08-30T07:31:24.716Z,100239.75
2022-08-30T07:33:54.376Z,100245.81
2022-08-30T07:36:22.460Z,100251.81
2022-08-30T07:38:50.469Z,100243.47
2022-08-30T07:41:19.974Z,100252.69
2022-08-30T07:43:47.911Z,100249.03
2022-08-30T07:46:15.871Z,100219.75
2022-08-30T07:48:44.175Z,100248.69
2022-08-30T07:51:15.155Z,100249.16
2022-08-30T07:53:43.006Z,100248.06
2022-08-30T07:56:11.691Z,100253.00
2022-08-30T07:58:39.800Z,100251.16
2022-08-30T08:01:09.960Z,100254.94
2022-08-30T08:03:38.928Z,100145.34
2022-08-30T08:06:07.604Z,100220.94
2022-08-30T08:08:38.660Z,100227.78
2022-08-30T08:11:09.734Z,100260.28
2022-08-30T08:13:45.205Z,100254.63
2022-08-30T08:16:22.876Z,100254.00
2022-08-30T08:18:51.938Z,100246.59
2022-08-30T08:21:20.033Z,100246.88
2022-08-30T08:23:49.424Z,100257.06
2022-08-30T08:26:17.323Z,100258.19
2022-08-30T08:28:46.708Z,100204.25
2022-08-30T08:31:17.755Z,100251.41
2022-08-30T08:33:45.712Z,100259.72
2022-08-30T08:36:13.682Z,100251.81
2022-08-30T08:38:41.528Z,100257.16
2022-08-30T08:41:35.267Z,100228.78
2022-08-30T08:44:05.340Z,100250.31
2022-08-30T08:46:37.039Z,100256.25
2022-08-30T08:49:06.146Z,100255.38
2022-08-30T08:51:52.677Z,100261.78
2022-08-30T08:54:23.531Z,100263.63
2022-08-30T08:56:52.959Z,100256.25
2022-08-30T08:59:20.838Z,100261.22
2022-08-30T09:02:03.274Z,100259.56
2022-08-30T09:04:33.594Z,100252.63
2022-08-30T09:07:03.735Z,100299.44
2022-08-30T09:09:33.171Z,100259.59
2022-08-30T09:12:02.670Z,100254.88
2022-08-30T09:14:34.786Z,100240.28
2022-08-30T09:17:03.210Z,100248.47
2022-08-30T09:19:37.002Z,100249.19
2022-08-30T09:22:07.384Z,100258.03
2022-08-30T09:24:41.125Z,100238.72
2022-08-30T09:27:23.804Z,100242.00
2022-08-30T09:29:54.228Z,100246.38
2022-08-30T09:32:36.993Z,100227.72
2022-08-30T09:35:07.391Z,100197.16
2022-08-30T09:37:39.012Z,100259.53
2022-08-30T09:40:16.851Z,100269.19
2022-08-30T09:43:02.622Z,100238.78
2022-08-30T09:45:33.116Z,100266.78
2022-08-30T09:48:01.112Z,100255.50
2022-08-30T09:50:29.305Z,100260.50
2022-08-30T09:53:01.098Z,100218.50
2022-08-30T09:55:39.024Z,100255.19
2022-08-30T09:58:11.349Z,100232.44
2022-08-30T10:00:42.750Z,100231.59
2022-08-30T10:03:36.174Z,100252.34
2022-08-30T10:06:13.939Z,100234.94
2022-08-30T10:08:52.165Z,100238.78
2022-08-30T10:11:25.378Z,100211.06
2022-08-30T10:14:07.688Z,100210.16
2022-08-30T10:16:45.207Z,100241.44
2022-08-30T10:19:29.618Z,100240.63
2022-08-30T10:22:00.496Z,100234.78
2022-08-30T10:24:33.474Z,100231.78
2022-08-30T10:27:10.013Z,100187.59
2022-08-30T10:29:43.337Z,100229.84
2022-08-30T10:32:13.964Z,100231.56
2022-08-30T10:34:42.605Z,100232.38
2022-08-30T10:37:12.487Z,100038.34
2022-08-30T10:39:42.792Z,100140.31
2022-08-30T10:42:19.053Z,100138.53
2022-08-30T10:44:51.431Z,100153.41
2022-08-30T10:47:25.246Z,100092.75
2022-08-30T10:49:56.667Z,100103.22
2022-08-30T10:52:27.098Z,99838.00
2022-08-30T10:54:56.745Z,100246.38
2022-08-30T10:57:25.627Z,100241.53
2022-08-30T10:59:58.403Z,100166.44
2022-08-30T11:03:05.698Z,100244.34
2022-08-30T11:05:59.886Z,100238.06
2022-08-30T11:08:38.396Z,100231.44
2022-08-30T11:11:13.021Z,100200.97
2022-08-30T11:13:41.256Z,100235.75
2022-08-30T11:16:15.404Z,100188.94
2022-08-30T11:18:45.333Z,100229.34
2022-08-30T11:21:22.422Z,100116.47
2022-08-30T11:24:11.495Z,100180.25
2022-08-30T11:26:57.292Z,100054.72
2022-08-30T11:29:39.978Z,100179.03
2022-08-30T11:32:49.671Z,100231.84
2022-08-30T11:35:45.988Z,100244.31
2022-08-30T11:38:19.891Z,100208.81
2022-08-30T11:40:53.335Z,100092.81
2022-08-30T11:43:54.286Z,100226.41
2022-08-30T11:46:35.221Z,100083.75
2022-08-30T11:49:06.951Z,99990.53
2022-08-30T11:52:08.519Z,100216.91
2022-08-30T11:54:44.752Z,100112.97
2022-08-30T11:57:18.671Z,100108.44
2022-08-30T11:59:52.213Z,100262.41
2022-08-30T12:02:43.581Z,100183.72
2022-08-30T12:05:26.938Z,100285.84
2022-08-30T12:08:01.023Z,100005.84
2022-08-30T12:10:37.950Z,100076.31
2022-08-30T12:13:06.330Z,100212.56
2022-08-30T12:15:58.133Z,100205.47
2022-08-30T12:18:32.187Z,100167.03
2022-08-30T12:21:07.810Z,100090.66
2022-08-30T12:23:44.636Z,100195.69
2022-08-30T12:26:20.147Z,100005.19
2022-08-30T12:28:49.764Z,100194.03
2022-08-30T12:31:19.467Z,100081.84
2022-08-30T12:33:50.747Z,100035.38
2022-08-30T12:36:32.831Z,100145.72
2022-08-30T12:39:11.125Z,99932.72
2022-08-30T12:41:43.710Z,99902.19
2022-08-30T12:44:15.865Z,100108.59
2022-08-30T12:46:44.645Z,99990.25
2022-08-30T12:49:14.408Z,100171.19
2022-08-30T12:51:43.936Z,99897.19
2022-08-30T12:54:18.207Z,99870.88
2022-08-30T12:57:03.682Z,100066.66
2022-08-30T12:59:52.837Z,99990.44
2022-08-30T13:02:24.225Z,100109.50
2022-08-30T13:04:52.805Z,100123.84
2022-08-30T13:07:32.639Z,100196.00
2022-08-30T13:10:12.049Z,100005.56
2022-08-30T13:12:40.387Z,100056.59
2022-08-30T13:15:14.212Z,100037.41
2022-08-30T13:17:42.526Z,100043.88
2022-08-30T13:20:22.908Z,100038.34
2022-08-30T13:23:07.013Z,100119.44
2022-08-30T13:25:38.327Z,100189.66
2022-08-30T13:28:06.944Z,100009.63
2022-08-30T13:30:35.119Z,100001.06
2022-08-30T13:33:03.134Z,100070.88
2022-08-30T13:35:31.131Z,100144.28
2022-08-30T13:37:59.093Z,99810.56
2022-08-30T13:40:27.065Z,100141.28
2022-08-30T13:42:56.477Z,99966.50
2022-08-30T13:45:44.429Z,100087.47
2022-08-30T13:48:12.529Z,100024.00
2022-08-30T13:50:40.932Z,100101.81
2022-08-30T13:53:09.410Z,99971.88
2022-08-30T13:55:38.331Z,99961.38
2022-08-30T13:58:07.666Z,100013.31
2022-08-30T14:00:38.127Z,99850.09
2022-08-30T14:03:06.551Z,100086.69
2022-08-30T14:06:09.966Z,100005.94
2022-08-30T14:11:18.735Z,100013.03
2022-08-30T14:16:37.101Z,100160.91
2022-08-30T14:19:05.752Z,100072.19
2022-08-30T14:21:33.944Z,99918.75
2022-08-30T14:24:01.949Z,100006.00
2022-08-30T14:26:32.924Z,100088.09
2022-08-30T14:29:03.473Z,100114.56
2022-08-30T14:31:33.350Z,100127.72
2022-08-30T14:34:03.330Z,99838.50
2022-08-30T14:36:32.221Z,100064.13
2022-08-30T14:39:00.138Z,99982.81
2022-08-30T14:41:28.346Z,100113.88
2022-08-30T14:43:56.219Z,99983.56
2022-08-30T14:46:26.963Z,99977.94
2022-08-30T14:48:55.388Z,100101.31
2022-08-30T14:51:24.002Z,99662.03
2022-08-30T14:53:52.451Z,99826.25
2022-08-30T14:56:22.487Z,100057.47
2022-08-30T14:58:50.832Z,99979.16
2022-08-30T15:01:19.183Z,99892.47
2022-08-30T15:03:48.543Z,100097.09
2022-08-30T15:06:16.583Z,100050.59
2022-08-30T15:08:47.670Z,100094.88
2022-08-30T15:11:17.703Z,100037.59
2022-08-30T15:13:45.559Z,100171.38
2022-08-30T15:16:14.959Z,100093.00
2022-08-30T15:18:43.939Z,99889.94
2022-08-30T15:21:13.296Z,100013.59
2022-08-30T15:23:41.319Z,99885.16
2022-08-30T15:26:09.861Z,99993.44
2022-08-30T15:28:38.075Z,100036.06
2022-08-30T15:31:09.077Z,99819.00
2022-08-30T15:33:37.882Z,100081.19
2022-08-30T15:36:06.214Z,99744.13
2022-08-30T15:38:35.949Z,99809.19
2022-08-30T15:41:07.201Z,100013.78
2022-08-30T15:43:35.390Z,99874.25
2022-08-30T15:46:17.878Z,99817.16
2022-08-30T15:48:46.695Z,99961.38
2022-08-30T15:51:14.944Z,100027.75
2022-08-30T15:53:44.828Z,100019.19
2022-08-30T15:56:12.974Z,100135.28
2022-08-30T15:58:41.316Z,100020.44
2022-08-30T16:01:09.281Z,99847.13
2022-08-30T16:03:37.925Z,99776.53
2022-08-30T16:06:07.694Z,99893.97
2022-08-30T16:08:35.573Z,100006.94
2022-08-30T16:11:06.015Z,99991.53
2022-08-30T16:13:34.818Z,100033.97
2022-08-30T16:16:08.076Z,99859.47
2022-08-30T16:18:36.224Z,100038.84
2022-08-30T16:21:05.525Z,99976.84
2022-08-30T16:23:33.853Z,100028.38
2022-08-30T16:26:04.174Z,99606.66
2022-08-30T16:28:37.656Z,99922.88
2022-08-30T16:31:07.357Z,100074.06
2022-08-30T16:33:37.979Z,100063.78
2022-08-30T16:36:10.943Z,99868.47
2022-08-30T16:38:39.266Z,99881.91
2022-08-30T16:41:08.465Z,99762.88
2022-08-30T16:43:38.839Z,99825.03
2022-08-30T16:46:08.441Z,99885.50
2022-08-30T16:48:36.337Z,99818.91
2022-08-30T16:51:08.794Z,99899.22
2022-08-30T16:53:36.846Z,99860.94
2022-08-30T16:56:08.213Z,99976.03
2022-08-30T16:58:37.716Z,99887.44
2022-08-30T17:01:09.548Z,99897.59
2022-08-30T17:03:38.401Z,100078.38
2022-08-30T17:06:07.174Z,100086.13
2022-08-30T17:11:04.792Z,100056.50
2022-08-30T17:13:33.245Z,100048.03
2022-08-30T17:16:02.578Z,100047.88
2022-08-30T17:18:30.487Z,100039.41
2022-08-30T17:20:58.742Z,100043.78
2022-08-30T17:23:26.908Z,100041.66
2022-08-30T17:29:06.515Z,100054.44
2022-08-30T17:31:37.429Z,100044.13
2022-08-30T17:34:05.794Z,100041.47
2022-08-30T17:36:35.468Z,100051.38
2022-08-30T17:39:10.492Z,100060.97
2022-08-30T17:41:39.759Z,100058.16
2022-08-30T17:44:11.195Z,100070.00
2022-08-30T17:46:40.475Z,100068.59
2022-08-30T17:49:10.636Z,100069.88
2022-08-30T17:51:41.912Z,100070.53
2022-08-30T17:54:10.445Z,100077.31
2022-08-30T17:56:39.585Z,100079.56
2022-08-30T17:59:08.111Z,100090.44
2022-08-30T18:01:37.288Z,100091.81
2022-08-30T18:04:06.764Z,100091.44
2022-08-30T18:06:34.879Z,100091.88
2022-08-30T18:09:02.786Z,100093.78
2022-08-30T18:11:30.740Z,100099.69
2022-08-30T18:13:58.672Z,100094.63
2022-08-30T18:16:27.868Z,100099.44
2022-08-30T18:18:57.062Z,100101.69
2022-08-30T18:21:28.511Z,100102.50
2022-08-30T18:23:56.854Z,100111.44
2022-08-30T18:26:24.988Z,100118.25
2022-08-30T18:28:53.293Z,100115.78
2022-08-30T18:31:21.329Z,100116.13
2022-08-30T18:33:49.527Z,100121.13
2022-08-30T18:36:17.850Z,100118.75
2022-08-30T18:38:47.591Z,100121.84
2022-08-30T18:41:15.658Z,100125.81
2022-08-30T18:43:43.888Z,100126.94
2022-08-30T18:46:14.044Z,100138.91
2022-08-30T18:48:42.775Z,100136.44
2022-08-30T18:51:11.535Z,100139.59
2022-08-30T18:53:39.353Z,100136.44
2022-08-30T18:56:10.370Z,100141.13
2022-08-30T18:58:40.259Z,100138.44
2022-08-30T19:01:12.948Z,100144.00
2022-08-30T19:03:41.941Z,100135.56
2022-08-30T19:06:11.346Z,100134.88
2022-08-30T19:08:40.140Z,100138.81
2022-08-30T19:11:08.505Z,100149.53
2022-08-30T19:13:37.758Z,100144.56
2022-08-30T19:16:07.458Z,100152.88
2022-08-30T19:18:40.134Z,100156.47
2022-08-30T19:21:13.471Z,100147.81
2022-08-30T19:23:41.750Z,100144.25
2022-08-30T19:26:10.933Z,100141.09
2022-08-30T19:28:40.319Z,100149.03
2022-08-30T19:31:08.310Z,100139.19
2022-08-30T19:33:36.175Z,100143.69
2022-08-30T19:36:06.883Z,100143.84
2022-08-30T19:38:35.633Z,100136.03
2022-08-30T19:41:03.795Z,100139.75
2022-08-30T19:43:31.644Z,100138.28
2022-08-30T19:46:01.304Z,100125.06
2022-08-30T19:48:32.455Z,100152.84
2022-08-30T19:51:01.424Z,100141.13
2022-08-30T19:53:29.480Z,100158.72
2022-08-30T19:55:57.369Z,100144.84
2022-08-30T19:58:25.515Z,100145.88
2022-08-30T20:00:54.648Z,100142.41
2022-08-30T20:03:29.950Z,100148.91
2022-08-30T20:05:57.936Z,100143.81
2022-08-30T20:08:26.040Z,100145.88
2022-08-30T20:10:54.091Z,100149.34
2022-08-30T20:13:23.530Z,100141.75
2022-08-30T20:15:55.825Z,100142.72
2022-08-30T20:18:25.938Z,100136.78
2022-08-30T20:20:55.215Z,100142.16
2022-08-30T20:23:23.898Z,100145.59
2022-08-30T20:25:53.390Z,100151.88
2022-08-30T20:28:21.655Z,100148.53
2022-08-30T20:30:49.879Z,100138.84
2022-08-30T20:33:18.180Z,100148.88
2022-08-30T20:35:49.249Z,100141.91
2022-08-30T20:38:21.944Z,100144.59
2022-08-30T20:40:51.409Z,100112.75
2022-08-30T20:43:19.497Z,100143.97
2022-08-30T20:45:47.527Z,100148.44
2022-08-30T20:48:15.420Z,100138.28
2022-08-30T20:50:43.520Z,100156.56
2022-08-30T20:53:11.524Z,100159.25
2022-08-30T20:55:43.525Z,100141.75
2022-08-30T20:58:11.499Z,100147.78
2022-08-30T21:00:39.586Z,100146.03
2022-08-30T21:03:25.536Z,100153.41
2022-08-30T21:05:55.069Z,100153.47
2022-08-30T21:08:23.096Z,100144.69
2022-08-30T21:10:52.364Z,100144.75
2022-08-30T21:13:20.393Z,100145.91
2022-08-30T21:15:52.825Z,100131.19
2022-08-30T21:18:23.550Z,100132.34
2022-08-30T21:20:51.506Z,100143.81
2022-08-30T21:23:19.466Z,100155.53
2022-08-30T21:25:47.326Z,100145.03
2022-08-30T21:28:17.647Z,100151.31
2022-08-30T21:30:45.932Z,100145.19
2022-08-30T21:33:13.883Z,100142.59
2022-08-30T21:35:59.141Z,100155.03
2022-08-30T21:38:27.112Z,100162.25
2022-08-30T21:40:55.094Z,100162.31
2022-08-30T21:43:24.327Z,100162.75
2022-08-30T21:45:53.619Z,100158.44
2022-08-30T21:48:21.526Z,100162.25
2022-08-30T21:50:49.445Z,100165.94
2022-08-30T21:53:17.452Z,100168.09
2022-08-30T21:55:45.862Z,100169.81
2022-08-30T21:58:16.144Z,100178.78
2022-08-30T22:00:45.492Z,100178.78
2022-08-30T22:03:13.653Z,100179.78
2022-08-30T22:05:41.934Z,100173.75
2022-08-30T22:08:09.812Z,100174.78
2022-08-30T22:10:37.643Z,100181.16
2022-08-30T22:13:06.409Z,100174.25
2022-08-30T22:15:34.938Z,100172.72
2022-08-30T22:18:04.451Z,100176.31
2022-08-30T22:20:32.373Z,100170.47
2022-08-30T22:23:00.372Z,100170.28
2022-08-30T22:25:28.212Z,100174.75
2022-08-30T22:27:56.155Z,100175.88
2022-08-30T22:30:24.051Z,100182.06
2022-08-30T22:32:52.729Z,100181.28
2022-08-30T22:35:23.824Z,100179.56
2022-08-30T22:37:53.204Z,100182.31
2022-08-30T22:40:21.733Z,100168.44
2022-08-30T22:42:49.691Z,100182.66
2022-08-30T22:45:17.746Z,100183.66
2022-08-30T22:47:45.626Z,100187.34
2022-08-30T22:50:14.286Z,100185.66
2022-08-30T22:52:44.017Z,100182.41
2022-08-30T22:55:11.838Z,100184.13
2022-08-30T22:57:39.948Z,100179.66
2022-08-30T23:00:10.579Z,100173.69
2022-08-30T23:02:38.615Z,100175.34
2022-08-30T23:05:07.292Z,100175.59
2022-08-30T23:07:35.263Z,100174.63
